Time;durP1;ratioP1;P1;durP2;ratioP2;P2;SDS_P1;SDS_P2;PMS_P1;PMS_P2;Temp;Humidity;BMP_temperature;BMP_pressure;BME280_temperature;BME280_humidity;BME280_pressure;Samples;Min_cycle;Max_cycle;Signal;HPM_P1;HPM_P2
2023/08/22 00:00:30;;;;;;;23.77;21.77;;;;;;;24.82;62.39;100688.22;5038286;28;96825;-85
2023/08/22 00:02:56;;;;;;;24.08;21.65;;;;;;;24.82;62.34;100692.72;5037928;27;99018;-85
2023/08/22 00:05:22;;;;;;;23.83;22.13;;;;;;;24.76;62.28;100678.00;5038050;28;98816;-85
2023/08/22 00:07:49;;;;;;;24.15;22.30;;;;;;;24.79;62.58;100683.13;5037813;28;96907;-85
2023/08/22 00:10:14;;;;;;;23.95;21.88;;;;;;;24.81;62.34;100691.00;5038404;28;96818;-85
2023/08/22 00:12:41;;;;;;;23.48;21.65;;;;;;;24.79;62.72;100683.13;5037429;27;98957;-84
2023/08/22 00:15:09;;;;;;;24.20;21.83;;;;;;;24.78;62.77;100692.16;5037729;28;98891;-85
2023/08/22 00:17:38;;;;;;;23.27;21.55;;;;;;;24.72;62.89;100691.81;5032746;27;96862;-85
2023/08/22 00:20:10;;;;;;;25.02;22.40;;;;;;;24.67;63.13;100680.63;5039121;27;96842;-85
2023/08/22 00:22:36;;;;;;;23.92;22.05;;;;;;;24.76;62.75;100687.91;5019703;28;98652;-84
2023/08/22 00:25:02;;;;;;;23.67;21.48;;;;;;;24.75;63.05;100681.66;5037607;28;97587;-85
2023/08/22 00:27:28;;;;;;;23.92;22.02;;;;;;;24.63;63.03;100666.66;5037959;28;96616;-85
2023/08/22 00:29:54;;;;;;;23.67;21.90;;;;;;;24.67;63.07;100677.97;5038000;27;96699;-85
2023/08/22 00:32:21;;;;;;;22.98;21.38;;;;;;;24.66;63.11;100682.47;5035386;27;98033;-85
2023/08/22 00:34:46;;;;;;;23.98;21.98;;;;;;;24.61;63.21;100671.31;5019190;28;100510;-85
2023/08/22 00:37:12;;;;;;;24.30;22.25;;;;;;;24.66;62.89;100674.44;5037451;28;96755;-85
2023/08/22 00:39:37;;;;;;;23.40;21.48;;;;;;;24.56;63.04;100660.13;5037847;28;96892;-84
2023/08/22 00:42:03;;;;;;;24.13;22.30;;;;;;;24.63;63.21;100685.44;5037319;28;99011;-84
2023/08/22 00:44:28;;;;;;;24.38;22.48;;;;;;;24.59;63.67;100682.19;5036526;27;97402;-85
2023/08/22 00:46:54;;;;;;;24.05;22.05;;;;;;;24.61;63.54;100674.84;5037812;27;97325;-85
2023/08/22 00:49:20;;;;;;;23.20;21.45;;;;;;;24.59;63.34;100668.75;5034071;27;97069;-84
2023/08/22 00:51:45;;;;;;;24.27;22.15;;;;;;;24.60;63.29;100673.13;5008478;28;100397;-84
2023/08/22 00:54:12;;;;;;;24.25;22.15;;;;;;;24.56;63.52;100666.34;5036917;28;98911;-85
2023/08/22 00:56:38;;;;;;;24.88;22.83;;;;;;;24.55;63.43;100672.72;5019440;28;96653;-85
2023/08/22 00:59:04;;;;;;;23.45;21.45;;;;;;;24.48;63.85;100668.84;5019770;28;96818;-85
2023/08/22 01:01:30;;;;;;;24.10;21.70;;;;;;;24.52;63.80;100670.28;5018399;28;100350;-85
2023/08/22 01:03:56;;;;;;;23.63;21.35;;;;;;;24.44;63.70;100663.91;5036964;27;98395;-85
2023/08/22 01:06:32;;;;;;;24.17;22.05;;;;;;;24.39;64.03;100674.97;5033588;27;96859;-84
2023/08/22 01:09:05;;;;;;;24.45;22.27;;;;;;;24.37;64.10;100674.25;5019388;28;96836;-85
2023/08/22 01:11:37;;;;;;;24.58;22.70;;;;;;;24.38;64.20;100676.81;5018719;28;100855;-85
2023/08/22 01:14:08;;;;;;;23.85;21.75;;;;;;;24.40;63.90;100666.81;5008413;28;97487;-85
2023/08/22 01:16:33;;;;;;;24.15;22.15;;;;;;;24.38;63.85;100671.44;5016286;28;96782;-85
2023/08/22 01:19:03;;;;;;;24.13;22.15;;;;;;;24.37;63.98;100668.88;5003504;28;96941;-85
2023/08/22 01:21:29;;;;;;;24.45;22.27;;;;;;;24.35;63.87;100662.81;5001575;28;100373;-84
2023/08/22 01:23:54;;;;;;;23.65;21.55;;;;;;;24.33;63.94;100662.94;5018475;28;100464;-84
2023/08/22 01:26:20;;;;;;;23.08;21.38;;;;;;;24.36;64.04;100661.84;5036625;28;96766;-85
2023/08/22 01:28:50;;;;;;;23.65;21.63;;;;;;;24.27;64.09;100646.53;5022778;28;97575;-85
2023/08/22 01:31:28;;;;;;;23.38;21.20;;;;;;;24.35;63.88;100654.78;5018211;28;99215;-85
2023/08/22 01:34:04;;;;;;;24.02;21.90;;;;;;;24.29;63.95;100645.44;5018499;28;99959;-85
2023/08/22 01:36:30;;;;;;;24.02;22.23;;;;;;;24.25;64.19;100643.13;5036953;28;96595;-85
2023/08/22 01:38:56;;;;;;;24.65;22.20;;;;;;;24.24;64.30;100641.44;5036810;27;96702;-85
2023/08/22 01:41:22;;;;;;;23.10;21.17;;;;;;;24.26;64.30;100660.91;5025875;27;98052;-84
2023/08/22 01:43:51;;;;;;;24.35;22.52;;;;;;;24.17;64.10;100649.13;5018281;28;98654;-85
2023/08/22 01:46:17;;;;;;;24.48;22.35;;;;;;;24.17;64.24;100662.56;5036913;28;97015;-85
2023/08/22 01:48:42;;;;;;;24.27;22.33;;;;;;;24.21;64.21;100660.47;5036346;27;96886;-84
2023/08/22 01:51:08;;;;;;;24.67;22.58;;;;;;;24.22;64.32;100652.28;5035833;28;99105;-84
2023/08/22 01:53:33;;;;;;;24.42;22.38;;;;;;;24.16;64.27;100648.31;5017829;28;100330;-84
2023/08/22 01:56:00;;;;;;;23.83;21.95;;;;;;;24.21;64.21;100657.81;5022060;27;97414;-84
2023/08/22 01:58:26;;;;;;;24.70;22.60;;;;;;;24.17;64.25;100651.81;5027488;28;96822;-84
2023/08/22 02:00:52;;;;;;;24.90;22.75;;;;;;;24.17;64.17;100649.13;5017514;28;100962;-84
2023/08/22 02:03:18;;;;;;;23.65;21.73;;;;;;;24.16;64.05;100650.97;5035999;28;98606;-85
2023/08/22 02:05:43;;;;;;;26.40;21.70;;;;;;;24.11;64.38;100649.69;5036232;28;96721;-84
2023/08/22 02:08:09;;;;;;;24.85;22.67;;;;;;;24.09;64.26;100655.19;5018418;28;97073;-84
2023/08/22 02:10:35;;;;;;;24.10;21.92;;;;;;;23.99;64.39;100640.84;5017775;28;100333;-83
2023/08/22 02:13:00;;;;;;;27.17;22.75;;;;;;;23.95;64.44;100637.59;5017526;28;99958;-84
2023/08/22 02:15:26;;;;;;;24.00;21.80;;;;;;;24.01;64.50;100652.31;5017812;28;96932;-84
2023/08/22 02:17:52;;;;;;;23.73;21.85;;;;;;;23.95;64.30;100647.47;5050077;27;96888;-85
2023/08/22 02:20:22;;;;;;;24.33;22.33;;;;;;;23.94;64.41;100645.78;5017544;28;100640;-84
2023/08/22 02:22:47;;;;;;;25.52;23.08;;;;;;;23.88;64.74;100643.59;5003076;28;98776;-84
2023/08/22 02:25:13;;;;;;;23.90;22.13;;;;;;;23.86;64.70;100653.63;5035973;28;96817;-84
2023/08/22 02:27:38;;;;;;;25.42;22.98;;;;;;;23.85;64.90;100652.78;5036183;28;96790;-84
2023/08/22 02:30:10;;;;;;;25.38;23.05;;;;;;;23.81;64.87;100643.28;5011948;28;100807;-85
2023/08/22 02:32:38;;;;;;;26.35;24.05;;;;;;;23.75;64.69;100640.25;5027912;27;97374;-84
2023/08/22 02:35:03;;;;;;;25.30;23.35;;;;;;;23.78;65.02;100640.00;5031989;28;96721;-84
2023/08/22 02:37:29;;;;;;;25.77;23.50;;;;;;;23.79;64.63;100641.69;5026073;28;96916;-85
2023/08/22 02:39:55;;;;;;;25.02;22.77;;;;;;;23.78;64.83;100634.66;5034902;28;99244;-84
2023/08/22 02:42:22;;;;;;;25.05;22.98;;;;;;;23.77;64.69;100635.63;5012710;28;100241;-84
2023/08/22 02:44:47;;;;;;;26.27;23.92;;;;;;;23.67;64.91;100633.66;5026285;28;96727;-85
2023/08/22 02:47:13;;;;;;;26.00;23.02;;;;;;;23.68;65.06;100642.59;5035470;28;96819;-84
2023/08/22 02:49:38;;;;;;;24.23;22.30;;;;;;;23.66;65.09;100639.19;5035585;28;96629;-85
2023/08/22 02:52:04;;;;;;;26.60;23.92;;;;;;;23.62;65.10;100627.00;5034930;28;98432;-84
2023/08/22 02:54:30;;;;;;;25.80;23.77;;;;;;;23.56;65.23;100624.84;5017302;28;96940;-83
2023/08/22 02:56:56;;;;;;;25.00;22.83;;;;;;;23.52;65.13;100623.41;5048168;27;97019;-84
2023/08/22 02:59:21;;;;;;;26.25;24.10;;;;;;;23.57;65.42;100623.88;5018346;28;100654;-84
2023/08/22 03:01:47;;;;;;;26.70;24.52;;;;;;;23.47;65.56;100623.78;5035105;28;98025;-84
2023/08/22 03:04:12;;;;;;;26.15;24.00;;;;;;;23.15;66.47;100615.72;5035119;28;96815;-84
2023/08/22 03:06:38;;;;;;;25.63;23.52;;;;;;;23.26;66.20;100603.16;5017104;28;97661;-84
2023/08/22 03:09:04;;;;;;;26.25;23.90;;;;;;;23.26;66.06;100597.81;5016244;28;99319;-84
2023/08/22 03:11:30;;;;;;;26.85;24.58;;;;;;;23.33;66.04;100610.69;5035230;28;98645;-84
2023/08/22 03:13:56;;;;;;;26.60;23.83;;;;;;;23.26;66.11;100605.00;5017227;28;96824;-84
2023/08/22 03:16:22;;;;;;;25.73;23.48;;;;;;;23.28;65.93;100611.91;5017002;28;96841;-84
2023/08/22 03:18:48;;;;;;;24.52;22.45;;;;;;;23.27;65.86;100601.31;5035133;28;96824;-84
2023/08/22 03:21:14;;;;;;;25.70;23.60;;;;;;;23.31;65.98;100605.47;5034696;28;98645;-84
2023/08/22 03:23:40;;;;;;;24.98;22.98;;;;;;;23.30;65.97;100611.81;5017276;28;96750;-84
2023/08/22 03:26:11;;;;;;;26.38;23.15;;;;;;;23.27;66.03;100594.16;5016848;28;96854;-84
2023/08/22 03:28:38;;;;;;;26.27;24.10;;;;;;;23.32;65.84;100601.81;4981079;28;100563;-84
2023/08/22 03:31:04;;;;;;;25.80;23.38;;;;;;;23.32;66.11;100601.81;5009937;28;99616;-84
2023/08/22 03:33:32;;;;;;;32.28;24.60;;;;;;;23.31;65.96;100600.09;5016920;28;96861;-84
2023/08/22 03:35:59;;;;;;;26.05;23.75;;;;;;;23.16;65.86;100579.97;5016932;28;96807;-84
2023/08/22 03:38:25;;;;;;;26.48;23.95;;;;;;;23.25;66.27;100603.31;5016444;28;99139;-84
2023/08/22 03:40:53;;;;;;;25.45;23.00;;;;;;;23.27;66.21;100601.31;5013010;28;99745;-84
2023/08/22 03:43:18;;;;;;;25.40;22.90;;;;;;;23.25;66.00;100598.78;5027303;28;96731;-84
2023/08/22 03:45:45;;;;;;;26.08;23.50;;;;;;;23.26;66.08;100599.63;5034892;28;96822;-84
2023/08/22 03:48:11;;;;;;;26.10;23.48;;;;;;;23.31;65.96;100601.94;5016577;28;100270;-84
2023/08/22 03:50:41;;;;;;;25.92;23.42;;;;;;;23.33;65.78;100602.66;5016521;28;98659;-84
2023/08/22 03:53:07;;;;;;;25.03;22.80;;;;;;;23.31;65.89;100589.41;5025717;27;96885;-84
2023/08/22 03:55:34;;;;;;;25.83;23.30;;;;;;;23.27;65.64;100586.13;5021121;28;96848;-84
2023/08/22 03:58:00;;;;;;;25.83;23.70;;;;;;;23.28;66.07;100595.00;5016138;28;100738;-84
2023/08/22 04:00:25;;;;;;;27.67;25.10;;;;;;;23.24;66.07;100591.75;5034536;28;96910;-84
2023/08/22 04:02:55;;;;;;;26.55;24.20;;;;;;;23.24;66.02;100588.19;5016637;28;96880;-83
2023/08/22 04:05:21;;;;;;;26.55;24.20;;;;;;;23.26;65.95;100583.56;5016684;28;96916;-84
2023/08/22 04:07:47;;;;;;;28.77;25.45;;;;;;;23.32;65.85;100583.06;5047874;27;97544;-84
2023/08/22 04:10:13;;;;;;;26.95;24.63;;;;;;;23.38;65.89;100587.03;5034583;27;99046;-85
2023/08/22 04:12:38;;;;;;;26.00;23.67;;;;;;;23.42;65.90;100599.22;5034538;27;96648;-85
2023/08/22 04:15:04;;;;;;;26.95;24.20;;;;;;;23.35;65.78;100577.44;5000012;28;96695;-85
2023/08/22 04:17:30;;;;;;;26.80;24.48;;;;;;;23.49;65.75;100590.53;5015566;28;100472;-84
2023/08/22 04:19:55;;;;;;;27.88;24.70;;;;;;;23.51;65.63;100598.44;5017196;28;100181;-84
2023/08/22 04:22:21;;;;;;;25.55;23.02;;;;;;;23.55;65.75;100591.84;5019768;28;96851;-84
2023/08/22 04:24:46;;;;;;;28.77;26.10;;;;;;;23.48;65.81;100591.53;5037810;28;97013;-84
2023/08/22 04:27:12;;;;;;;28.85;26.10;;;;;;;23.47;65.82;100584.47;5037160;27;97820;-84
2023/08/22 04:29:37;;;;;;;30.42;27.35;;;;;;;23.47;65.68;100587.16;5037153;28;98738;-85
2023/08/22 04:32:04;;;;;;;28.98;26.17;;;;;;;23.53;65.56;100588.44;5012086;28;98924;-84
2023/08/22 04:34:30;;;;;;;28.83;26.45;;;;;;;23.64;65.17;100584.84;5013306;28;96893;-84
2023/08/22 04:36:58;;;;;;;28.17;25.92;;;;;;;23.80;64.84;100600.53;5018989;28;99252;-83
2023/08/22 04:39:24;;;;;;;29.55;26.42;;;;;;;23.81;64.31;100584.31;5018921;28;99329;-84
2023/08/22 04:41:58;;;;;;;27.55;25.02;;;;;;;23.83;64.02;100571.63;5005141;28;96849;-84
2023/08/22 04:44:27;;;;;;;28.65;26.17;;;;;;;24.06;63.84;100588.41;5019352;28;96980;-84
2023/08/22 04:46:52;;;;;;;28.80;26.33;;;;;;;23.61;64.52;100575.25;5037292;28;97733;-84
2023/08/22 04:49:18;;;;;;;27.83;25.73;;;;;;;23.87;63.84;100589.13;5019032;28;99571;-83
2023/08/22 04:51:43;;;;;;;28.55;26.17;;;;;;;23.97;63.32;100573.13;4999148;28;96791;-84
2023/08/22 04:54:10;;;;;;;27.77;25.30;;;;;;;24.19;63.00;100588.19;5016493;28;96975;-84
2023/08/22 04:56:36;;;;;;;28.67;25.95;;;;;;;24.16;63.05;100591.97;5001669;28;100764;-85
2023/08/22 04:59:02;;;;;;;27.45;24.63;;;;;;;24.44;61.73;100583.41;5018778;28;100179;-84
2023/08/22 05:01:28;;;;;;;27.35;25.10;;;;;;;24.72;60.74;100593.38;5019156;28;96863;-84
2023/08/22 05:03:56;;;;;;;26.35;23.88;;;;;;;24.97;60.17;100589.34;5019800;28;97583;-84
2023/08/22 05:06:21;;;;;;;27.02;24.40;;;;;;;25.27;59.72;100595.63;5020617;28;100400;-84
2023/08/22 05:08:47;;;;;;;27.83;25.35;;;;;;;25.33;59.16;100586.16;5018361;28;100032;-84
2023/08/22 05:11:14;;;;;;;27.52;25.25;;;;;;;25.26;59.67;100604.69;5018938;28;96796;-84
2023/08/22 05:13:39;;;;;;;27.67;24.70;;;;;;;25.14;59.23;100606.66;5018869;28;96851;-84
2023/08/22 05:16:05;;;;;;;27.77;25.27;;;;;;;25.13;59.31;100609.41;5034214;28;99022;-84
2023/08/22 05:18:32;;;;;;;27.55;25.35;;;;;;;25.20;58.71;100605.25;5006463;28;99832;-85
2023/08/22 05:20:58;;;;;;;27.90;25.23;;;;;;;25.51;58.16;100606.81;5018723;28;97633;-84
2023/08/22 05:23:23;;;;;;;27.75;25.48;;;;;;;25.96;56.70;100602.69;5018963;28;96804;-84
2023/08/22 05:25:49;;;;;;;28.85;26.55;;;;;;;26.51;55.41;100596.59;5036285;27;99185;-84
2023/08/22 05:28:14;;;;;;;27.25;25.17;;;;;;;27.20;53.08;100582.59;5036269;27;98334;-85
2023/08/22 05:30:40;;;;;;;27.75;25.10;;;;;;;28.40;50.84;100591.91;5018518;28;97263;-85
2023/08/22 05:33:06;;;;;;;27.00;24.75;;;;;;;29.68;47.62;100596.16;5001940;28;96693;-84
2023/08/22 05:35:31;;;;;;;26.05;23.85;;;;;;;30.70;45.21;100591.03;5009930;28;100391;-84
2023/08/22 05:37:57;;;;;;;26.52;24.25;;;;;;;31.76;42.96;100584.88;5012090;28;100543;-84
2023/08/22 05:40:23;;;;;;;26.25;23.77;;;;;;;32.08;42.16;100574.75;5016330;28;97355;-84
2023/08/22 05:42:51;;;;;;;27.25;24.85;;;;;;;33.24;40.11;100600.28;5010117;28;98806;-84
2023/08/22 05:45:17;;;;;;;26.35;24.35;;;;;;;33.65;39.18;100596.94;5009685;28;100405;-85
2023/08/22 05:47:43;;;;;;;27.80;25.30;;;;;;;33.58;38.62;100599.59;5001677;28;100144;-85
2023/08/22 05:50:10;;;;;;;26.42;24.25;;;;;;;34.26;37.75;100599.06;5005894;28;96817;-85
2023/08/22 05:52:36;;;;;;;25.77;23.92;;;;;;;35.10;36.29;100598.00;5016762;28;96917;-85
2023/08/22 05:55:02;;;;;;;25.90;23.33;;;;;;;34.96;35.42;100599.00;5006944;28;99122;-85
2023/08/22 05:57:28;;;;;;;26.10;23.88;;;;;;;34.60;36.08;100600.13;5032628;27;98634;-85
2023/08/22 05:59:54;;;;;;;25.17;23.27;;;;;;;35.73;35.01;100590.34;5017999;28;96822;-84
2023/08/22 06:02:20;;;;;;;25.60;23.48;;;;;;;36.23;33.67;100579.78;5036372;28;96773;-85
2023/08/22 06:04:46;;;;;;;24.77;22.95;;;;;;;37.13;32.58;100595.41;5017521;28;100107;-85
2023/08/22 06:07:12;;;;;;;25.50;23.52;;;;;;;37.24;32.00;100586.50;5035233;28;98475;-85
2023/08/22 06:09:38;;;;;;;24.88;22.80;;;;;;;37.41;32.54;100581.31;5036666;28;97161;-85
2023/08/22 06:12:04;;;;;;;24.42;22.40;;;;;;;37.72;31.24;100585.09;5036210;28;96803;-85
2023/08/22 06:14:30;;;;;;;24.35;22.63;;;;;;;37.31;31.58;100584.53;5017520;28;100454;-85
2023/08/22 06:16:56;;;;;;;25.42;23.25;;;;;;;37.93;30.67;100579.19;5017237;28;100805;-85
2023/08/22 06:19:22;;;;;;;24.75;22.90;;;;;;;38.81;30.01;100579.91;5017611;28;96773;-83
2023/08/22 06:21:47;;;;;;;24.60;22.80;;;;;;;39.13;29.37;100566.81;5017899;28;96986;-85
2023/08/22 06:24:13;;;;;;;26.27;23.77;;;;;;;39.74;28.95;100572.97;5035693;28;98826;-85
2023/08/22 06:26:39;;;;;;;24.38;22.23;;;;;;;39.88;28.61;100584.59;5016956;28;100039;-85
2023/08/22 06:29:04;;;;;;;26.27;23.85;;;;;;;40.24;28.31;100567.03;5006765;28;96859;-85
2023/08/22 06:31:31;;;;;;;25.52;23.33;;;;;;;39.58;28.67;100582.78;5032910;28;97096;-84
2023/08/22 06:33:57;;;;;;;24.58;22.67;;;;;;;38.17;30.96;100590.38;5016913;28;100657;-86
2023/08/22 06:36:23;;;;;;;23.77;22.15;;;;;;;38.52;30.33;100590.63;5015826;28;100625;-85
2023/08/22 06:38:49;;;;;;;24.55;22.60;;;;;;;38.38;31.04;100583.59;5004746;28;96761;-85
2023/08/22 06:41:16;;;;;;;24.25;22.35;;;;;;;38.54;29.78;100574.75;5026488;28;98413;-85
2023/08/22 06:43:42;;;;;;;23.45;21.58;;;;;;;38.10;30.65;100568.50;5029674;27;98787;-85
2023/08/22 06:46:07;;;;;;;23.70;21.80;;;;;;;40.65;27.53;100560.47;5035054;28;98583;-84
2023/08/22 06:48:33;;;;;;;23.65;21.95;;;;;;;38.77;29.67;100562.22;5017421;28;96841;-85
2023/08/22 06:50:58;;;;;;;24.35;22.40;;;;;;;39.71;28.30;100560.59;5017352;28;96954;-85
2023/08/22 06:53:24;;;;;;;23.45;21.33;;;;;;;40.66;27.51;100548.38;5017158;28;98836;-85
2023/08/22 06:55:49;;;;;;;22.92;21.13;;;;;;;42.58;25.93;100554.72;5020349;28;98541;-84
2023/08/22 06:58:15;;;;;;;22.95;21.35;;;;;;;43.35;24.61;100553.59;5035598;28;96711;-85
2023/08/22 07:00:41;;;;;;;22.33;20.60;;;;;;;44.16;24.23;100545.03;5035400;28;96878;-85
2023/08/22 07:03:06;;;;;;;24.50;22.48;;;;;;;44.86;23.16;100537.25;5034690;28;98675;-85
2023/08/22 07:05:34;;;;;;;23.00;20.90;;;;;;;45.65;22.98;100545.28;5034960;28;98260;-86
2023/08/22 07:08:00;;;;;;;22.45;20.85;;;;;;;46.48;22.06;100553.06;5034484;27;96854;-86
2023/08/22 07:10:26;;;;;;;23.45;21.80;;;;;;;47.20;21.42;100549.84;5017340;28;97046;-86
2023/08/22 07:12:51;;;;;;;23.98;21.98;;;;;;;47.07;21.08;100549.38;5048917;27;98762;-86
2023/08/22 07:15:17;;;;;;;24.00;22.20;;;;;;;46.44;21.90;100544.47;5035823;27;98383;-86
2023/08/22 07:17:42;;;;;;;23.63;22.02;;;;;;;47.44;20.91;100553.50;5034303;28;96820;-86
2023/08/22 07:20:08;;;;;;;24.35;22.48;;;;;;;44.28;23.18;100542.84;5035239;28;96948;-86
2023/08/22 07:22:34;;;;;;;21.85;20.42;;;;;;;47.25;21.14;100545.06;5034625;28;99258;-86
2023/08/22 07:24:59;;;;;;;23.33;21.35;;;;;;;48.05;20.33;100527.81;5034642;28;98305;-85
2023/08/22 07:27:25;;;;;;;24.05;22.35;;;;;;;47.77;19.87;100526.78;5035021;28;96772;-86
2023/08/22 07:29:51;;;;;;;22.30;20.67;;;;;;;46.78;20.52;100535.44;5035125;27;96836;-86
2023/08/22 07:32:20;;;;;;;23.40;21.65;;;;;;;45.40;21.80;100516.47;5034304;28;99129;-86
2023/08/22 07:34:46;;;;;;;;;;;;;;;46.59;21.36;100537.19;5033365;28;98548;-86
2023/08/22 07:37:13;;;;;;;22.70;21.20;;;;;;;46.67;21.06;100531.06;5023911;27;97863;-87
2023/08/22 07:39:39;;;;;;;23.65;21.83;;;;;;;46.63;21.02;100530.75;5035001;27;96796;-86
2023/08/22 07:42:05;;;;;;;21.65;20.15;;;;;;;47.69;20.20;100521.84;5016122;28;100695;-86
2023/08/22 07:44:30;;;;;;;23.52;21.73;;;;;;;46.67;20.65;100528.28;5034537;28;98469;-86
2023/08/22 07:46:56;;;;;;;22.77;21.23;;;;;;;47.42;19.57;100525.22;5034640;28;96777;-86
2023/08/22 07:49:23;;;;;;;23.83;21.77;;;;;;;48.27;19.49;100513.38;5035187;28;96956;-87
2023/08/22 07:51:49;;;;;;;22.40;20.90;;;;;;;48.86;19.29;100522.28;5048621;27;99141;-86
2023/08/22 07:54:14;;;;;;;22.27;20.50;;;;;;;48.73;18.63;100523.03;5034551;28;98402;-86
2023/08/22 07:56:40;;;;;;;22.67;20.95;;;;;;;49.42;18.45;100528.03;5038116;28;96687;-87
2023/08/22 07:59:06;;;;;;;21.73;20.27;;;;;;;50.61;17.83;100530.88;5038335;28;96904;-86
2023/08/22 08:01:32;;;;;;;23.67;21.88;;;;;;;50.70;17.45;100523.44;5027866;28;98912;-86
2023/08/22 08:03:57;;;;;;;22.60;21.05;;;;;;;50.81;17.13;100521.22;5033630;28;98686;-86
2023/08/22 08:06:23;;;;;;;22.42;20.83;;;;;;;50.87;17.82;100517.97;5037919;28;98083;-87
2023/08/22 08:08:48;;;;;;;21.85;20.10;;;;;;;51.47;17.36;100522.31;5038286;28;96812;-86
2023/08/22 08:11:14;;;;;;;23.08;21.08;;;;;;;51.08;17.30;100507.13;5037827;28;99059;-87
2023/08/22 08:13:39;;;;;;;22.65;20.95;;;;;;;52.44;17.02;100511.09;5049731;27;98669;-85
2023/08/22 08:16:06;;;;;;;23.50;21.70;;;;;;;51.64;16.82;100510.38;5040135;27;96679;-84
2023/08/22 08:18:32;;;;;;;22.45;20.95;;;;;;;52.72;16.62;100502.38;5028105;28;96804;-85
2023/08/22 08:20:57;;;;;;;23.25;21.58;;;;;;;53.61;16.01;100503.44;5047276;27;98856;-87
2023/08/22 08:23:23;;;;;;;24.73;22.92;;;;;;;49.15;18.31;100516.50;5045522;27;98804;-85
2023/08/22 08:25:48;;;;;;;21.88;20.48;;;;;;;50.92;17.17;100517.84;5044027;27;96675;-87
2023/08/22 08:28:14;;;;;;;22.13;20.45;;;;;;;51.98;16.66;100495.69;5051988;27;96963;-87
2023/08/22 08:30:40;;;;;;;22.77;21.27;;;;;;;53.72;15.18;100503.94;5037430;28;99077;-87
2023/08/22 08:33:06;;;;;;;22.85;21.02;;;;;;;53.63;15.50;100500.31;5033556;28;98312;-87
2023/08/22 08:35:32;;;;;;;22.88;21.08;;;;;;;54.09;15.35;100493.00;5009797;28;97008;-87
2023/08/22 08:37:59;;;;;;;23.75;22.05;;;;;;;54.58;15.15;100501.69;5023485;28;96932;-88
2023/08/22 08:40:27;;;;;;;23.48;21.77;;;;;;;55.13;14.45;100496.84;5042936;27;97797;-87
2023/08/22 08:42:53;;;;;;;;;;;;;;;55.38;13.97;100506.19;5019590;28;98851;-87
2023/08/22 08:45:18;;;;;;;22.23;20.42;;;;;;;55.42;14.20;100493.03;5037344;28;96841;-87
2023/08/22 08:47:44;;;;;;;23.33;21.75;;;;;;;57.41;13.34;100488.06;5037036;28;96924;-88
2023/08/22 08:50:10;;;;;;;24.42;22.65;;;;;;;56.60;13.79;100479.06;5037255;28;99144;-88
2023/08/22 08:52:36;;;;;;;22.77;21.17;;;;;;;57.47;13.10;100478.16;5037100;28;98917;-87
2023/08/22 08:55:07;;;;;;;23.25;21.75;;;;;;;55.88;13.43;100484.50;5019221;28;96754;-88
2023/08/22 08:57:32;;;;;;;23.40;21.27;;;;;;;56.33;13.36;100480.69;5037306;28;97260;-88
2023/08/22 09:00:00;;;;;;;23.92;22.17;;;;;;;57.17;13.11;100475.00;5037292;28;98056;-89
2023/08/22 09:02:27;;;;;;;22.17;20.73;;;;;;;57.67;12.65;100467.75;5035753;28;98812;-87
2023/08/22 09:04:52;;;;;;;24.00;22.40;;;;;;;57.36;13.21;100469.41;5007732;27;97677;-87
2023/08/22 09:07:18;;;;;;;24.38;22.67;;;;;;;55.89;13.49;100475.69;5037272;27;96671;-88
2023/08/22 09:09:43;;;;;;;25.08;22.83;;;;;;;55.20;14.34;100463.38;5036702;27;99582;-88
2023/08/22 09:12:10;;;;;;;23.73;21.92;;;;;;;55.12;14.35;100459.50;5036982;27;98511;-88
2023/08/22 09:14:44;;;;;;;24.05;22.15;;;;;;;54.20;15.09;100454.09;5037692;28;96769;-88
2023/08/22 09:17:16;;;;;;;22.48;20.98;;;;;;;55.83;14.25;100452.63;5037293;28;96817;-87
2023/08/22 09:19:42;;;;;;;23.33;21.45;;;;;;;54.27;15.26;100458.00;5036938;28;98693;-87
2023/08/22 09:22:12;;;;;;;24.10;22.08;;;;;;;53.53;15.56;100445.44;5036845;28;98396;-88
2023/08/22 09:24:37;;;;;;;23.35;21.42;;;;;;;51.90;16.57;100443.34;5037228;27;97102;-88
2023/08/22 09:27:03;;;;;;;23.50;21.60;;;;;;;47.08;20.14;100458.56;5045452;27;96786;-88
2023/08/22 09:29:32;;;;;;;24.15;21.92;;;;;;;44.55;22.93;100456.06;5042440;27;98869;-87
2023/08/22 09:32:00;;;;;;;23.60;21.80;;;;;;;42.69;24.47;100458.00;5036815;27;98479;-88
2023/08/22 09:34:26;;;;;;;22.60;20.95;;;;;;;41.11;25.86;100450.44;5019258;28;97289;-87
2023/08/22 09:36:53;;;;;;;21.75;20.20;;;;;;;41.23;26.24;100451.16;5036949;28;96788;-87
2023/08/22 09:39:19;;;;;;;23.65;21.85;;;;;;;40.44;27.52;100446.47;5036597;28;98792;-86
2023/08/22 09:41:45;;;;;;;22.77;20.77;;;;;;;40.27;27.56;100449.19;5036661;27;97776;-86
2023/08/22 09:44:11;;;;;;;23.92;22.05;;;;;;;40.03;28.06;100433.84;5036895;27;96809;-87
2023/08/22 09:46:41;;;;;;;22.85;21.05;;;;;;;39.33;29.32;100448.47;5037043;27;97191;-88
2023/08/22 09:49:07;;;;;;;;;;;;;;;38.65;30.28;100444.25;5036888;27;99273;-88
2023/08/22 09:51:33;;;;;;;23.77;21.90;;;;;;;38.42;30.31;100450.50;5019234;28;98762;-87
2023/08/22 09:54:03;;;;;;;23.08;21.52;;;;;;;37.93;30.76;100450.44;5051152;27;96631;-88
2023/08/22 09:56:31;;;;;;;23.27;21.60;;;;;;;37.81;31.41;100428.44;5028121;27;96873;-87
2023/08/22 09:58:57;;;;;;;21.85;20.35;;;;;;;37.94;31.39;100448.59;5040905;27;98922;-87
2023/08/22 10:01:24;;;;;;;22.52;20.83;;;;;;;37.30;32.58;100442.47;5018740;28;98423;-88
2023/08/22 10:03:53;;;;;;;22.75;20.95;;;;;;;36.97;32.81;100438.06;5023244;28;96831;-88
2023/08/22 10:06:21;;;;;;;23.37;21.67;;;;;;;37.33;32.01;100414.66;5036139;28;96965;-88
2023/08/22 10:08:47;;;;;;;22.95;21.25;;;;;;;37.59;32.03;100430.00;5018177;28;99264;-88
2023/08/22 10:11:14;;;;;;;23.13;21.52;;;;;;;37.09;32.74;100419.06;5036057;27;98779;-87
2023/08/22 10:13:41;;;;;;;22.88;21.15;;;;;;;36.84;32.23;100414.41;5018570;28;96674;-87
2023/08/22 10:16:07;;;;;;;23.95;22.13;;;;;;;37.04;33.01;100419.75;5036743;28;96904;-87
2023/08/22 10:18:32;;;;;;;22.02;20.35;;;;;;;36.18;33.62;100420.28;5017278;28;98157;-88
2023/08/22 10:20:58;;;;;;;23.20;21.50;;;;;;;36.45;33.76;100418.22;5018361;28;97743;-87
2023/08/22 10:23:51;;;;;;;23.58;21.77;;;;;;;36.01;34.33;100418.03;5036632;27;96731;-88
2023/08/22 10:26:17;;;;;;;23.15;21.35;;;;;;;35.69;34.44;100413.50;5021955;28;96850;-88
2023/08/22 10:28:43;;;;;;;23.50;21.42;;;;;;;35.08;35.46;100412.78;5036154;28;99341;-88
2023/08/22 10:31:09;;;;;;;24.50;22.25;;;;;;;34.91;35.50;100412.31;5036328;28;98558;-87
2023/08/22 10:33:34;;;;;;;22.58;21.08;;;;;;;34.62;36.34;100424.47;5036393;28;97119;-88
2023/08/22 10:36:05;;;;;;;22.20;20.52;;;;;;;33.66;37.23;100418.16;5036795;27;96859;-88
2023/08/22 10:38:50;;;;;;;23.25;21.55;;;;;;;34.24;36.63;100411.34;5036167;28;99110;-88
2023/08/22 10:41:16;;;;;;;23.88;22.02;;;;;;;34.82;36.05;100396.34;5036126;28;98701;-89
2023/08/22 10:43:41;;;;;;;23.10;21.20;;;;;;;34.87;35.74;100402.03;5036606;28;97256;-88
2023/08/22 10:46:06;;;;;;;22.67;20.98;;;;;;;35.04;35.45;100405.19;5036598;28;96888;-87
2023/08/22 10:48:32;;;;;;;22.92;21.10;;;;;;;34.86;35.62;100395.75;5035565;28;98120;-88
2023/08/22 10:51:08;;;;;;;23.20;21.48;;;;;;;34.73;35.92;100390.28;5036090;27;97461;-88
2023/08/22 10:53:42;;;;;;;23.25;21.60;;;;;;;34.78;36.04;100404.13;5036708;27;96718;-88
2023/08/22 10:56:23;;;;;;;23.83;22.05;;;;;;;34.04;36.47;100399.56;5036291;27;96984;-87
2023/08/22 10:59:03;;;;;;;24.23;22.42;;;;;;;33.88;37.18;100389.81;5036156;27;99436;-87
2023/08/22 11:01:29;;;;;;;23.85;21.98;;;;;;;34.07;36.56;100398.31;5023757;27;98725;-88
2023/08/22 11:03:56;;;;;;;23.05;21.08;;;;;;;33.99;37.18;100389.22;5036285;27;96800;-88
2023/08/22 11:06:22;;;;;;;23.25;21.67;;;;;;;34.19;36.93;100380.31;5036254;28;96965;-88